Weather History for Glencoe, MN

Change the Weather History Date:

Monday, January 20, 2014

  Actual Average (KHCD) Record (KHCD)
Temperature  
Mean Temperature 12 °F -  
Max Temperature 29 °F 24 °F 44 °F (1964)
Min Temperature -5 °F 4 °F -30 °F (1984)
Degree Days  
Heating Degree Days 52    
Moisture  
Dew Point 6 °F    
Average Humidity 68    
Maximum Humidity 86    
Minimum Humidity 50    
Precipitation  
Precipitation 0.00 in - - ()
Sea Level Pressure  
Sea Level Pressure 30.05 in    
Wind  
Wind Speed 10 mph (NNW)    
Max Wind Speed 21 mph    
Max Gust Speed 28 mph    
Visibility 8 miles    
Events Snow    
Averages and records for this station are not official NWS values.
T = Trace of Precipitation, MM = Missing Value Source: NWS Daily Summary

Daily Weather History Graph

Daily Weather History Graph

Search for Another Location

Airport:

Trip Planner

Search our weather history database for the weather conditions in past years. The results will help you decide how hot, cold, wet, or windy it might be!

Date:

Astronomy

Jan. 20, 2014 Rise Set
Actual Time 7:46 AM CST 5:08 PM CST
Civil Twilight 7:14 AM CST 5:40 PM CST
Nautical Twilight 6:38 AM CST 6:16 PM CST
Astronomical Twilight 6:04 AM CST 6:51 PM CST
Moon 9:57 PM CST (1/20) 9:34 AM CST (1/20)
Length of Visible Light 10h 25m
Length of Day
9h 21m
Waning Gibbous, 82% of the Moon is Illuminated
Jan 20
Waning Gibbous
Jan 23
Last Quarter
Jan 30
New
Feb 6
First Quarter
Feb 14
Full

Hourly Weather History & Observations

Time (CST) Temp. Windchill Dew Point Humidity Pressure Visibility Wind Dir Wind Speed Gust Speed Precip Events Conditions
12:12 AM 25.7 °F 19.0 °F 21.2 °F 83% 29.72 in 10.0 mi WSW 5.8 mph - N/A   Mostly Cloudy
12:33 AM 25.7 °F 19.0 °F 21.6 °F 84% 29.72 in 10.0 mi West 5.8 mph - N/A   Scattered Clouds
12:52 AM 25.5 °F 19.9 °F 21.7 °F 86% 29.72 in 10.0 mi WSW 4.6 mph - N/A   Mostly Cloudy
1:13 AM 25.3 °F 17.6 °F 21.2 °F 84% 29.72 in 10.0 mi WSW 6.9 mph - N/A   Scattered Clouds
1:33 AM 24.8 °F 17.9 °F 21.0 °F 86% 29.73 in 10.0 mi WSW 5.8 mph - N/A   Mostly Cloudy
1:52 AM 25.5 °F 18.7 °F 21.6 °F 85% 29.73 in 10.0 mi WSW 5.8 mph - N/A   Mostly Cloudy
2:13 AM 27.3 °F 19.1 °F 23.0 °F 84% 29.74 in 10.0 mi WSW 8.1 mph - N/A   Scattered Clouds
2:32 AM 28.0 °F 19.3 °F 23.0 °F 81% 29.74 in 10.0 mi West 9.2 mph - N/A   Clear
2:53 AM 28.2 °F 18.9 °F 23.0 °F 81% 29.76 in 10.0 mi West 10.4 mph - N/A   Scattered Clouds
3:13 AM 29.3 °F 19.6 °F 23.7 °F 80% 29.76 in 10.0 mi West 11.5 mph - N/A   Overcast
3:33 AM 29.3 °F 19.1 °F 23.5 °F 79% 29.77 in 10.0 mi West 12.7 mph - N/A   Overcast
3:53 AM 29.3 °F 18.2 °F 23.5 °F 79% 29.77 in 10.0 mi West 15.0 mph - N/A   Overcast
4:12 AM 29.3 °F 18.2 °F 23.4 °F 78% 29.78 in 10.0 mi WNW 15.0 mph - N/A   Overcast
4:33 AM 29.7 °F 18.2 °F 23.0 °F 76% 29.78 in 10.0 mi WNW 16.1 mph 25.3 mph N/A   Overcast
4:53 AM 28.8 °F 18.4 °F 21.9 °F 76% 29.79 in 10.0 mi NW 12.7 mph - N/A   Mostly Cloudy
5:13 AM 28.0 °F 17.0 °F 21.0 °F 75% 29.78 in 10.0 mi NW 13.8 mph 19.6 mph N/A   Scattered Clouds
5:33 AM 27.5 °F 17.4 °F 20.3 °F 74% 29.79 in 10.0 mi NW 11.5 mph - N/A   Mostly Cloudy
5:53 AM 26.6 °F 17.5 °F 19.9 °F 76% 29.80 in 10.0 mi NNW 9.2 mph - N/A   Overcast
6:12 AM 25.3 °F 14.1 °F 18.0 °F 74% 29.81 in 10.0 mi NW 12.7 mph 17.3 mph N/A   Scattered Clouds
6:33 AM 25.5 °F 16.2 °F 18.3 °F 74% 29.83 in 10.0 mi NW 9.2 mph - N/A   Mostly Cloudy
6:52 AM 24.8 °F 16.9 °F 18.0 °F 75% 29.83 in 10.0 mi NW 6.9 mph - N/A   Overcast
7:13 AM 25.2 °F 19.5 °F 18.1 °F 75% 29.83 in 10.0 mi NW 4.6 mph - N/A   Overcast
7:32 AM 25.2 °F 18.3 °F 18.3 °F 75% 29.84 in 10.0 mi WNW 5.8 mph - N/A   Overcast
7:53 AM 25.2 °F 17.3 °F 18.5 °F 76% 29.85 in 10.0 mi WNW 6.9 mph - N/A   Overcast
8:13 AM 25.0 °F 16.3 °F 18.7 °F 77% 29.87 in 10.0 mi North 8.1 mph - N/A   Overcast
8:32 AM 24.1 °F 17.0 °F 18.3 °F 79% 29.89 in 10.0 mi North 5.8 mph - N/A   Overcast
8:53 AM 23.2 °F 13.3 °F 16.7 °F 76% 29.90 in 10.0 mi North 9.2 mph - N/A Snow Light Snow
9:13 AM 22.5 °F 11.7 °F 16.3 °F 77% 29.91 in 5.0 mi North 10.4 mph - N/A Snow Light Snow
9:33 AM 22.1 °F 12.8 °F 16.3 °F 79% 29.93 in 7.0 mi North 8.1 mph - N/A Snow Light Snow
9:53 AM 21.9 °F 15.7 °F 16.7 °F 80% 29.94 in 10.0 mi North 4.6 mph - N/A   Overcast
10:13 AM 20.8 °F 11.2 °F 14.9 °F 78% 29.95 in 7.0 mi North 8.1 mph - N/A   Overcast
10:33 AM 19.8 °F 8.3 °F 12.4 °F 73% 29.97 in 7.0 mi North 10.4 mph - N/A   Overcast
10:53 AM 19.0 °F 6.8 °F 12.0 °F 74% 29.98 in 3.0 mi North 11.5 mph 16.1 mph N/A Snow Light Snow
11:13 AM 18.9 °F 6.5 °F 12.2 °F 75% 29.99 in 1.8 mi North 11.5 mph 18.4 mph N/A Snow Light Snow
11:33 AM 18.5 °F 6.1 °F 11.7 °F 75% 29.99 in 3.0 mi NNE 11.5 mph 17.3 mph N/A Snow Light Snow
11:53 AM 17.4 °F 8.0 °F 9.5 °F 71% 30.00 in 7.0 mi NNE 6.9 mph - N/A   Overcast
12:13 PM 16.5 °F 3.6 °F 8.6 °F 71% 30.00 in 4.0 mi NNE 11.5 mph 17.3 mph N/A Snow Light Snow
12:33 PM 15.8 °F 1.4 °F 7.7 °F 70% 30.01 in 3.0 mi North 13.8 mph 20.7 mph N/A Snow Light Snow
12:53 PM 14.9 °F 0.9 °F 6.6 °F 70% 30.02 in 3.0 mi North 12.7 mph 19.6 mph N/A Snow Light Snow
1:13 PM 13.6 °F -2.4 °F 5.0 °F 68% 30.04 in 4.0 mi North 16.1 mph 24.2 mph N/A   Haze
1:33 PM 12.7 °F -3.0 °F 3.2 °F 66% 30.06 in 4.0 mi North 15.0 mph 23.0 mph N/A Snow Light Snow
1:53 PM 12.0 °F -4.5 °F 1.9 °F 64% 30.06 in 4.0 mi North 16.1 mph 23.0 mph N/A Snow Light Snow
2:13 PM 11.3 °F -4.9 °F 1.9 °F 66% 30.07 in 4.0 mi North 15.0 mph 20.7 mph N/A Snow Light Snow
2:33 PM 11.3 °F -4.9 °F 1.6 °F 65% 30.09 in 7.0 mi North 15.0 mph 24.2 mph N/A   Overcast
2:53 PM 10.8 °F -6.7 °F 0.5 °F 63% 30.11 in 5.0 mi North 17.3 mph 24.2 mph N/A   Haze
3:13 PM 10.0 °F -7.1 °F -0.2 °F 63% 30.13 in 2.5 mi North 16.1 mph 27.6 mph N/A Snow Light Snow
3:33 PM 8.6 °F -10.0 °F -0.4 °F 67% 30.16 in 4.0 mi NNW 18.4 mph 25.3 mph N/A   Haze
3:53 PM 7.7 °F -11.2 °F -2.0 °F 65% 30.18 in 4.0 mi North 18.4 mph 27.6 mph N/A   Haze
4:13 PM 7.7 °F -12.2 °F -2.4 °F 63% 30.20 in 7.0 mi North 20.7 mph 25.3 mph N/A   Mostly Cloudy
4:32 PM 7.3 °F -11.1 °F -3.5 °F 61% 30.21 in 7.0 mi North 17.3 mph 25.3 mph N/A   Overcast
4:53 PM 7.0 °F -11.0 °F -5.3 °F 57% 30.23 in 7.0 mi North 16.1 mph 21.9 mph N/A   Overcast
5:13 PM 6.6 °F -13.6 °F -8.1 °F 51% 30.25 in 7.0 mi North 20.7 mph 27.6 mph N/A   Overcast
5:33 PM 6.3 °F -10.7 °F -9.0 °F 50% 30.27 in 10.0 mi North 13.8 mph 21.9 mph N/A   Overcast
5:53 PM 6.3 °F -12.0 °F -7.2 °F 54% 30.28 in 10.0 mi North 16.1 mph 21.9 mph N/A   Overcast
6:13 PM 5.7 °F -14.3 °F -8.1 °F 53% 30.29 in 10.0 mi NNW 19.6 mph 26.5 mph N/A   Scattered Clouds
6:33 PM 4.6 °F -14.6 °F -8.9 °F 54% 30.31 in 10.0 mi NNW 17.3 mph - N/A   Clear
6:53 PM 3.7 °F -14.6 °F -9.8 °F 54% 30.32 in 10.0 mi NNW 15.0 mph 21.9 mph N/A   Clear
7:13 PM 3.0 °F -13.3 °F -10.5 °F 53% 30.34 in 10.0 mi NNW 11.5 mph 19.6 mph N/A   Clear
7:33 PM 2.3 °F -15.0 °F -10.3 °F 56% 30.35 in 10.0 mi NNW 12.7 mph 16.1 mph N/A   Clear
7:52 PM 1.9 °F -16.9 °F -11.0 °F 55% 30.37 in 10.0 mi NNW 15.0 mph 20.7 mph N/A   Clear
8:13 PM 1.2 °F -17.8 °F -12.8 °F 52% 30.38 in 10.0 mi NNW 15.0 mph - N/A   Clear
8:33 PM 0.3 °F -17.5 °F -13.5 °F 52% 30.39 in 10.0 mi NNW 12.7 mph - N/A   Clear
8:53 PM -0.4 °F -16.7 °F -14.1 °F 53% 30.40 in 10.0 mi NNW 10.4 mph - N/A   Clear
9:13 PM -0.4 °F -16.7 °F -14.1 °F 53% 30.41 in 10.0 mi NW 10.4 mph - N/A   Clear
9:33 PM -0.8 °F -17.2 °F -14.6 °F 52% 30.41 in 10.0 mi NNW 10.4 mph 17.3 mph N/A   Clear
9:53 PM -1.5 °F -18.1 °F -14.8 °F 53% 30.41 in 10.0 mi NW 10.4 mph - N/A   Clear
10:13 PM -2.2 °F -18.0 °F -15.3 °F 54% 30.42 in 10.0 mi NW 9.2 mph - N/A   Clear
10:32 PM -2.9 °F -20.8 °F -16.6 °F 52% 30.42 in 10.0 mi North 11.5 mph - N/A   Clear
10:53 PM -3.8 °F -17.5 °F -17.3 °F 52% 30.44 in 10.0 mi NNW 6.9 mph - N/A   Clear
11:13 PM -4.0 °F -21.2 °F -17.5 °F 52% 30.44 in 10.0 mi NW 10.4 mph - N/A   Clear
11:32 PM -4.4 °F -21.6 °F -18.6 °F 51% 30.44 in 10.0 mi NNW 10.4 mph 16.1 mph N/A   Clear
11:53 PM -5.1 °F -20.4 °F -19.3 °F 50% 30.44 in 10.0 mi NW 8.1 mph - N/A   Clear